Time;durP1;ratioP1;P1;durP2;ratioP2;P2;SDS_P1;SDS_P2;PMS_P1;PMS_P2;Temp;Humidity;BMP_temperature;BMP_pressure;BME280_temperature;BME280_humidity;BME280_pressure;Samples;Min_cycle;Max_cycle;Signal;HPM_P1;HPM_P2
2022/04/16 00:00:27;;;;;;;3.25;1.83;;;19.90;54.30;;;;;;4310260;33;20412;-72
2022/04/16 00:02:55;;;;;;;6.30;1.70;;;19.90;54.30;;;;;;4297108;33;20154;-72
2022/04/16 00:05:23;;;;;;;5.43;1.83;;;19.80;54.20;;;;;;4309600;33;20101;-72
2022/04/16 00:08:06;;;;;;;3.65;1.75;;;19.90;54.30;;;;;;4310468;33;20097;-72
2022/04/16 00:10:33;;;;;;;3.97;1.50;;;19.80;54.30;;;;;;4310180;33;20089;-73
2022/04/16 00:12:59;;;;;;;5.28;1.60;;;19.80;54.30;;;;;;4308698;33;20085;-72
2022/04/16 00:15:26;;;;;;;3.45;1.50;;;19.80;54.30;;;;;;4309856;33;20158;-72
2022/04/16 00:17:53;;;;;;;5.88;1.67;;;19.80;54.30;;;;;;4311756;33;20686;-72
2022/04/16 00:20:19;;;;;;;3.50;1.45;;;19.80;54.30;;;;;;4311233;33;20100;-72
2022/04/16 00:22:45;;;;;;;5.15;1.52;;;19.80;54.30;;;;;;4312463;33;20228;-72
2022/04/16 00:25:13;;;;;;;4.50;1.77;;;19.80;54.30;;;;;;4311139;33;20204;-72
2022/04/16 00:27:39;;;;;;;2.13;1.50;;;19.80;54.30;;;;;;4312432;33;20069;-72
2022/04/16 00:30:06;;;;;;;3.92;1.45;;;19.80;54.30;;;;;;4311510;33;20181;-72
2022/04/16 00:32:31;;;;;;;3.35;1.65;;;19.80;54.30;;;;;;4312418;33;20403;-72
2022/04/16 00:34:57;;;;;;;3.85;1.60;;;19.80;55.20;;;;;;4311077;33;20594;-72
2022/04/16 00:37:23;;;;;;;4.22;1.50;;;19.70;54.30;;;;;;4312576;33;20065;-72
2022/04/16 00:39:49;;;;;;;3.88;1.40;;;19.70;54.20;;;;;;4311366;33;20100;-72
2022/04/16 00:42:15;;;;;;;2.75;1.35;;;19.70;54.20;;;;;;4312317;33;20169;-72
2022/04/16 00:44:41;;;;;;;4.95;1.40;;;19.70;54.20;;;;;;4312255;33;20077;-71
2022/04/16 00:47:07;;;;;;;3.58;1.48;;;19.70;54.20;;;;;;4312136;33;20183;-72
2022/04/16 00:49:33;;;;;;;2.70;1.35;;;19.70;54.20;;;;;;4311783;33;20081;-72
2022/04/16 00:52:01;;;;;;;3.22;1.42;;;19.70;54.30;;;;;;4311776;33;20081;-72
2022/04/16 00:54:27;;;;;;;3.65;1.35;;;19.70;54.20;;;;;;4310700;33;20097;-72
2022/04/16 00:56:53;;;;;;;2.92;1.50;;;19.70;54.30;;;;;;4315982;33;20105;-72
2022/04/16 00:59:19;;;;;;;2.90;1.33;;;19.70;54.30;;;;;;4310488;33;20076;-72
2022/04/16 01:01:44;;;;;;;3.05;1.40;;;19.60;54.20;;;;;;4309396;33;20128;-72
2022/04/16 01:04:10;;;;;;;3.20;1.70;;;19.60;54.20;;;;;;4310557;33;20085;-72
2022/04/16 01:06:42;;;;;;;4.75;1.20;;;19.60;54.20;;;;;;4310527;33;20065;-72
2022/04/16 01:09:08;;;;;;;3.05;1.58;;;19.60;54.20;;;;;;4310544;33;20181;-72
2022/04/16 01:11:34;;;;;;;3.22;1.50;;;19.60;54.20;;;;;;4310316;33;20104;-72
2022/04/16 01:14:01;;;;;;;3.45;1.60;;;19.60;54.20;;;;;;4312400;33;20169;-72
2022/04/16 01:16:33;;;;;;;2.35;1.42;;;19.60;54.20;;;;;;4310544;33;20558;-72
2022/04/16 01:19:01;;;;;;;3.22;1.70;;;19.60;54.20;;;;;;4310558;33;20081;-72
2022/04/16 01:21:28;;;;;;;4.20;1.58;;;19.60;54.20;;;;;;4311441;33;20147;-72
2022/04/16 01:23:55;;;;;;;3.10;1.38;;;19.60;54.10;;;;;;4310163;33;20085;-72
2022/04/16 01:26:22;;;;;;;3.05;1.40;;;19.60;55.10;;;;;;4310273;33;20408;-72
2022/04/16 01:28:48;;;;;;;2.25;1.30;;;19.50;54.10;;;;;;4310122;33;20089;-72
2022/04/16 01:31:14;;;;;;;2.55;1.40;;;19.50;54.10;;;;;;4310294;33;20570;-72
2022/04/16 01:33:40;;;;;;;2.78;1.50;;;19.50;54.10;;;;;;4314161;33;20274;-72
2022/04/16 01:36:06;;;;;;;2.42;1.25;;;19.50;54.10;;;;;;4311138;33;20530;-72
2022/04/16 01:38:31;;;;;;;1.42;1.10;;;19.50;54.10;;;;;;4310192;33;20093;-72
2022/04/16 01:40:58;;;;;;;2.10;1.02;;;19.50;54.10;;;;;;4310122;33;20522;-72
2022/04/16 01:43:25;;;;;;;4.68;1.48;;;19.50;54.10;;;;;;4298757;33;20595;-72
2022/04/16 01:45:51;;;;;;;1.77;1.10;;;19.50;54.10;;;;;;4308886;33;20288;-72
2022/04/16 01:48:17;;;;;;;2.95;1.40;;;19.50;54.10;;;;;;4309925;33;20408;-72
2022/04/16 01:50:43;;;;;;;4.05;1.52;;;19.50;54.10;;;;;;4309955;33;20120;-72
2022/04/16 01:53:09;;;;;;;2.20;1.25;;;19.50;54.10;;;;;;4310074;33;20086;-72
2022/04/16 01:55:35;;;;;;;2.35;1.20;;;19.40;54.00;;;;;;4311793;33;20135;-72
2022/04/16 01:58:03;;;;;;;2.28;1.10;;;19.40;54.00;;;;;;4311754;33;20551;-72
2022/04/16 02:00:29;;;;;;;2.03;1.10;;;19.40;54.10;;;;;;4310212;33;20065;-72
2022/04/16 02:02:57;;;;;;;2.75;1.50;;;19.40;54.00;;;;;;4309800;33;20111;-72
2022/04/16 02:05:23;;;;;;;3.10;1.10;;;19.40;54.10;;;;;;4309828;33;20162;-71
2022/04/16 02:07:50;;;;;;;2.20;1.00;;;19.40;54.10;;;;;;4309317;33;20505;-72
2022/04/16 02:10:16;;;;;;;3.42;1.20;;;19.40;54.00;;;;;;4310300;33;20076;-72
2022/04/16 02:12:44;;;;;;;1.75;1.20;;;19.40;54.10;;;;;;4312336;33;20147;-72
2022/04/16 02:15:10;;;;;;;2.08;1.38;;;19.40;54.10;;;;;;4310281;33;20101;-72
2022/04/16 02:17:39;;;;;;;2.10;1.20;;;19.40;54.10;;;;;;4310202;33;20081;-72
2022/04/16 02:20:06;;;;;;;2.33;1.30;;;19.40;54.10;;;;;;4310119;33;20479;-72
2022/04/16 02:22:46;;;;;;;3.75;1.38;;;19.40;54.10;;;;;;4310154;33;20504;-72
2022/04/16 02:25:14;;;;;;;2.10;1.20;;;19.40;54.10;;;;;;4310009;33;20089;-72
2022/04/16 02:27:40;;;;;;;2.75;1.30;;;19.30;54.00;;;;;;4310070;33;20180;-73
2022/04/16 02:30:08;;;;;;;1.63;1.17;;;19.30;54.00;;;;;;4309989;33;20081;-72
2022/04/16 02:32:38;;;;;;;3.58;1.23;;;19.30;54.10;;;;;;4313498;33;20606;-72
2022/04/16 02:35:06;;;;;;;2.13;1.13;;;19.40;54.10;;;;;;4310008;33;20169;-72
2022/04/16 02:37:33;;;;;;;2.25;1.00;;;19.30;54.10;;;;;;4296816;33;20095;-72
2022/04/16 02:39:58;;;;;;;2.30;1.13;;;19.30;54.10;;;;;;4309412;33;20088;-72
2022/04/16 02:42:24;;;;;;;2.50;1.42;;;19.30;54.10;;;;;;4315246;33;20117;-72
2022/04/16 02:47:34;;;;;;;1.75;1.27;;;19.30;54.10;;;;;;4308520;33;20137;-72
2022/04/16 02:50:00;;;;;;;2.70;1.50;;;19.30;54.10;;;;;;4308884;33;20088;-72
2022/04/16 02:52:26;;;;;;;3.70;1.20;;;19.30;54.10;;;;;;4308972;33;20065;-72
2022/04/16 02:54:55;;;;;;;2.50;1.35;;;19.20;54.00;;;;;;4311382;33;20189;-72
2022/04/16 02:57:21;;;;;;;2.65;1.27;;;19.30;54.10;;;;;;4309923;33;20077;-72
2022/04/16 02:59:46;;;;;;;1.38;1.02;;;19.20;54.00;;;;;;4309210;33;20384;-72
2022/04/16 03:02:13;;;;;;;1.63;0.98;;;19.20;54.00;;;;;;4309611;33;20069;-72
2022/04/16 03:04:39;;;;;;;1.77;1.20;;;19.20;54.10;;;;;;4316421;33;20482;-72
2022/04/16 03:07:05;;;;;;;2.80;1.35;;;19.20;54.00;;;;;;4324247;33;20124;-72
2022/04/16 03:09:31;;;;;;;1.42;1.10;;;19.20;54.10;;;;;;4324183;33;20148;-72
2022/04/16 03:11:58;;;;;;;1.92;1.33;;;19.20;54.10;;;;;;4311381;33;20285;-72
2022/04/16 03:19:55;;;;;;;2.60;1.08;;;19.20;54.10;;;;;;4311035;33;20085;-72
2022/04/16 03:22:21;;;;;;;2.05;1.30;;;19.20;54.10;;;;;;4309311;33;20103;-72
2022/04/16 03:24:47;;;;;;;1.17;1.00;;;19.20;54.00;;;;;;4309782;33;20112;-72
2022/04/16 03:27:14;;;;;;;1.40;1.10;;;19.20;54.10;;;;;;4310269;33;20218;-72
2022/04/16 03:29:40;;;;;;;1.85;1.10;;;19.20;54.10;;;;;;4310231;33;20073;-72
2022/04/16 03:32:06;;;;;;;2.65;1.40;;;19.20;54.10;;;;;;4310472;33;20085;-72
2022/04/16 03:34:32;;;;;;;2.17;1.08;;;19.10;54.00;;;;;;4310095;33;20101;-72
2022/04/16 03:36:58;;;;;;;1.70;1.20;;;19.10;54.10;;;;;;4310031;33;20123;-72
2022/04/16 03:39:24;;;;;;;1.60;1.30;;;19.20;55.00;;;;;;4310146;33;20101;-72
2022/04/16 03:41:50;;;;;;;3.63;1.48;;;19.20;54.10;;;;;;4309969;33;20065;-73
2022/04/16 03:44:17;;;;;;;1.60;1.10;;;19.10;54.10;;;;;;4310274;33;20524;-72
2022/04/16 03:46:42;;;;;;;1.45;1.25;;;19.10;54.10;;;;;;4311531;33;20301;-72
2022/04/16 03:49:08;;;;;;;1.67;1.00;;;19.10;54.10;;;;;;4309225;33;20477;-72
2022/04/16 03:51:34;;;;;;;2.35;1.30;;;19.10;54.10;;;;;;4310322;33;20535;-72
2022/04/16 03:59:59;;;;;;;1.67;1.17;;;19.10;54.10;;;;;;4311157;33;20269;-72
2022/04/16 04:02:15;;;;;;;2.53;1.25;;;19.10;54.10;;;;;;4311602;33;20480;-72
2022/04/16 04:04:43;;;;;;;2.25;1.23;;;19.10;54.10;;;;;;4311259;33;20231;-72
2022/04/16 04:07:10;;;;;;;1.40;1.20;;;19.10;54.10;;;;;;4313125;33;20416;-72
2022/04/16 04:09:38;;;;;;;2.50;1.10;;;19.10;54.20;;;;;;4318662;33;20419;-72
2022/04/16 04:12:14;;;;;;;1.50;1.13;;;19.10;54.10;;;;;;4327481;33;20419;-72
2022/04/16 04:14:40;;;;;;;2.25;1.25;;;19.10;54.20;;;;;;4327521;33;20061;-72
2022/04/16 04:17:07;;;;;;;1.67;1.30;;;19.10;54.20;;;;;;4327389;33;20085;-72
2022/04/16 04:19:38;;;;;;;2.38;1.33;;;19.10;54.20;;;;;;4327244;33;20607;-72
2022/04/16 04:22:06;;;;;;;1.83;1.13;;;19.10;54.20;;;;;;4326803;33;20095;-72
2022/04/16 04:24:31;;;;;;;3.03;1.80;;;19.00;54.20;;;;;;4326444;33;20103;-72
2022/04/16 04:26:59;;;;;;;1.80;1.20;;;19.00;54.20;;;;;;4327018;33;20069;-72
2022/04/16 04:29:26;;;;;;;1.52;1.10;;;19.00;54.20;;;;;;4327222;33;20124;-72
2022/04/16 04:31:52;;;;;;;2.30;1.58;;;19.00;54.20;;;;;;4313981;33;20221;-72
2022/04/16 04:34:18;;;;;;;2.33;1.70;;;19.00;54.20;;;;;;4327010;33;20096;-72
2022/04/16 04:36:44;;;;;;;1.63;1.20;;;19.00;55.10;;;;;;4327116;33;20084;-72
2022/04/16 04:39:10;;;;;;;1.95;1.30;;;19.00;54.20;;;;;;4326503;33;20538;-72
2022/04/16 04:41:36;;;;;;;2.47;1.38;;;19.00;54.20;;;;;;4327107;33;20089;-72
2022/04/16 04:44:02;;;;;;;2.15;1.60;;;19.00;54.10;;;;;;4326790;33;20084;-72
2022/04/16 04:46:28;;;;;;;2.70;1.42;;;19.00;54.10;;;;;;4327010;33;20211;-72
2022/04/16 04:48:54;;;;;;;2.30;1.42;;;19.00;54.10;;;;;;4326377;33;20091;-72
2022/04/16 04:51:19;;;;;;;2.55;1.52;;;18.90;54.10;;;;;;4313501;33;20285;-72
2022/04/16 04:53:45;;;;;;;2.25;1.40;;;18.90;54.10;;;;;;4313187;33;20336;-72
2022/04/16 04:56:11;;;;;;;2.00;1.38;;;19.00;54.10;;;;;;4326381;33;20136;-72
2022/04/16 04:58:37;;;;;;;2.15;1.50;;;18.90;54.10;;;;;;4312928;33;20092;-72
2022/04/16 05:01:04;;;;;;;2.40;1.80;;;18.90;54.10;;;;;;4313547;33;20081;-72
2022/04/16 05:03:30;;;;;;;2.50;1.67;;;18.90;54.10;;;;;;4326339;33;20100;-72
2022/04/16 05:05:55;;;;;;;2.30;1.65;;;18.90;54.10;;;;;;4313226;33;20120;-72
2022/04/16 05:08:21;;;;;;;2.00;1.60;;;18.90;54.00;;;;;;4326336;33;20099;-72
2022/04/16 05:10:47;;;;;;;2.28;1.70;;;18.90;54.10;;;;;;4326797;33;20377;-72
2022/04/16 05:13:13;;;;;;;2.47;1.88;;;18.90;54.00;;;;;;4326427;33;20081;-72
2022/04/16 05:15:39;;;;;;;2.17;1.55;;;18.90;54.00;;;;;;4326437;33;20091;-72
2022/04/16 05:18:05;;;;;;;2.60;1.52;;;18.80;54.00;;;;;;4327048;33;20193;-72
2022/04/16 05:20:30;;;;;;;2.22;1.58;;;18.90;54.00;;;;;;4326592;33;20218;-72
2022/04/16 05:22:56;;;;;;;3.42;1.80;;;18.90;54.00;;;;;;4326400;33;20079;-72
2022/04/16 05:25:22;;;;;;;3.70;1.75;;;18.90;54.00;;;;;;4326153;33;20069;-72
2022/04/16 05:27:48;;;;;;;2.83;1.67;;;18.80;53.90;;;;;;4326130;33;20484;-72
2022/04/16 05:30:22;;;;;;;1.75;1.50;;;18.90;54.00;;;;;;4326601;33;20087;-72
2022/04/16 05:32:51;;;;;;;2.10;1.50;;;18.80;54.00;;;;;;4313189;33;20487;-72
2022/04/16 05:35:17;;;;;;;2.03;1.77;;;18.80;54.00;;;;;;4326062;33;20080;-72
2022/04/16 05:37:44;;;;;;;2.92;2.03;;;18.80;53.90;;;;;;4312863;33;20081;-72
2022/04/16 05:40:10;;;;;;;1.92;1.60;;;18.80;54.00;;;;;;4326184;33;20088;-72
2022/04/16 05:42:43;;;;;;;2.25;1.63;;;18.80;53.90;;;;;;4326219;33;20219;-72
2022/04/16 05:45:14;;;;;;;2.23;1.70;;;18.80;53.90;;;;;;4326218;33;20099;-72
2022/04/16 05:47:41;;;;;;;2.13;1.70;;;18.80;54.00;;;;;;4325945;33;20077;-72
2022/04/16 05:50:08;;;;;;;2.00;1.60;;;18.80;54.00;;;;;;4325843;33;20414;-72
2022/04/16 05:52:34;;;;;;;2.97;1.73;;;18.80;53.90;;;;;;4326007;33;20097;-72
2022/04/16 05:55:01;;;;;;;3.03;1.65;;;18.80;53.90;;;;;;4325474;33;20243;-72
2022/04/16 05:57:28;;;;;;;2.03;1.83;;;18.80;53.90;;;;;;4326012;33;20080;-72
2022/04/16 05:59:57;;;;;;;2.15;1.70;;;18.80;53.90;;;;;;4325391;33;20095;-72
2022/04/16 06:02:23;;;;;;;1.73;1.63;;;18.80;53.90;;;;;;4325801;33;20103;-72
2022/04/16 06:04:49;;;;;;;2.30;1.60;;;18.80;53.90;;;;;;4325663;33;20507;-72
2022/04/16 06:07:15;;;;;;;1.73;1.60;;;18.80;53.90;;;;;;4325693;33;20739;-72
2022/04/16 06:09:41;;;;;;;1.73;1.60;;;18.80;53.90;;;;;;4325394;33;20502;-72
2022/04/16 06:12:09;;;;;;;1.90;1.60;;;18.80;53.90;;;;;;4325783;33;20100;-72
2022/04/16 06:14:35;;;;;;;2.03;1.70;;;18.80;53.90;;;;;;4324826;33;20128;-72
2022/04/16 06:17:01;;;;;;;1.85;1.67;;;18.80;53.80;;;;;;4325635;33;20084;-72
2022/04/16 06:19:27;;;;;;;2.65;1.73;;;18.80;53.80;;;;;;4325503;33;20076;-72
2022/04/16 06:21:53;;;;;;;2.17;1.80;;;18.80;53.80;;;;;;4325635;33;20079;-72
2022/04/16 06:24:19;;;;;;;2.08;1.80;;;18.80;53.80;;;;;;4325053;33;20210;-72
2022/04/16 06:26:47;;;;;;;1.92;1.70;;;18.80;53.80;;;;;;4312254;33;20097;-73
2022/04/16 06:29:14;;;;;;;1.95;1.58;;;18.80;53.80;;;;;;4325506;33;20238;-73
2022/04/16 06:31:41;;;;;;;2.10;1.70;;;18.80;53.90;;;;;;4312323;33;20645;-72
2022/04/16 06:34:06;;;;;;;2.28;1.60;;;18.80;53.80;;;;;;4325478;33;20398;-73
2022/04/16 06:36:32;;;;;;;2.83;1.70;;;18.80;53.80;;;;;;4325498;33;20054;-72
2022/04/16 06:38:58;;;;;;;1.92;1.65;;;18.80;53.80;;;;;;4325053;33;20602;-72
2022/04/16 06:41:24;;;;;;;2.35;1.88;;;18.80;53.80;;;;;;4325383;33;20084;-72
2022/04/16 06:43:49;;;;;;;2.80;1.92;;;18.80;53.80;;;;;;4312049;33;20511;-72
2022/04/16 06:46:15;;;;;;;2.53;1.88;;;18.80;53.70;;;;;;4325194;33;20602;-72
2022/04/16 06:48:41;;;;;;;2.28;1.73;;;18.90;53.80;;;;;;4325048;33;20143;-72
2022/04/16 06:51:07;;;;;;;2.33;1.70;;;18.90;53.80;;;;;;4325115;33;20472;-72
2022/04/16 06:53:33;;;;;;;2.45;1.70;;;18.90;53.80;;;;;;4325210;33;20077;-71
2022/04/16 06:56:00;;;;;;;4.28;2.13;;;18.90;53.80;;;;;;4325044;33;20503;-71
2022/04/16 06:58:28;;;;;;;4.53;2.60;;;18.90;53.70;;;;;;4324848;33;20073;-70
2022/04/16 07:00:55;;;;;;;4.78;2.60;;;19.00;53.60;;;;;;4312084;33;20076;-71
2022/04/16 07:03:21;;;;;;;4.20;2.90;;;19.00;53.40;;;;;;4324737;33;20189;-70
2022/04/16 07:05:47;;;;;;;4.50;3.13;;;19.00;53.10;;;;;;4324811;33;20199;-71
2022/04/16 07:08:12;;;;;;;6.28;3.72;;;19.00;52.90;;;;;;4324934;33;20218;-71
2022/04/16 07:10:39;;;;;;;4.88;3.38;;;19.00;52.70;;;;;;4324933;33;20479;-70
2022/04/16 07:13:05;;;;;;;7.97;3.50;;;19.10;52.40;;;;;;4311739;33;20399;-70
2022/04/16 07:15:33;;;;;;;7.65;3.83;;;19.10;52.30;;;;;;4324909;33;20099;-71
2022/04/16 07:18:00;;;;;;;6.40;3.83;;;19.10;52.10;;;;;;4324783;33;20128;-70
2022/04/16 07:20:26;;;;;;;6.07;3.92;;;19.10;52.00;;;;;;4311730;33;20278;-70
2022/04/16 07:22:52;;;;;;;5.47;3.83;;;19.10;51.80;;;;;;4324670;33;20181;-70
2022/04/16 07:25:18;;;;;;;6.47;3.92;;;19.10;51.60;;;;;;4323911;33;20127;-72
2022/04/16 07:27:44;;;;;;;5.05;3.35;;;19.10;51.50;;;;;;4324704;33;20499;-71
2022/04/16 07:30:10;;;;;;;5.82;3.88;;;19.10;51.30;;;;;;4324566;33;20169;-72
2022/04/16 07:32:38;;;;;;;6.53;3.40;;;19.20;51.20;;;;;;4325015;33;20148;-72
2022/04/16 07:35:05;;;;;;;7.63;4.30;;;19.20;51.00;;;;;;4324526;33;20097;-71
2022/04/16 07:37:31;;;;;;;5.75;3.70;;;19.20;50.80;;;;;;4324471;33;20176;-70
2022/04/16 07:39:57;;;;;;;6.28;3.33;;;19.20;51.40;;;;;;4324646;33;20084;-70
2022/04/16 07:42:27;;;;;;;6.43;3.60;;;19.20;50.40;;;;;;4305878;33;20091;-70
2022/04/16 07:44:53;;;;;;;4.90;3.03;;;19.20;50.20;;;;;;4309423;33;20109;-70
2022/04/16 07:47:19;;;;;;;5.85;3.28;;;19.20;50.10;;;;;;4309935;33;20576;-70
2022/04/16 07:49:45;;;;;;;4.45;3.03;;;19.30;49.90;;;;;;4314387;33;20083;-70
2022/04/16 07:52:11;;;;;;;7.00;3.38;;;19.30;49.70;;;;;;4298313;33;20156;-70
2022/04/16 07:54:37;;;;;;;4.93;2.95;;;19.30;49.50;;;;;;4322077;33;20097;-70
2022/04/16 07:57:06;;;;;;;4.00;2.67;;;19.30;49.20;;;;;;4305145;33;20100;-70
2022/04/16 07:59:33;;;;;;;4.07;2.70;;;19.30;49.00;;;;;;4308777;33;20073;-70
2022/04/16 08:01:59;;;;;;;5.60;3.25;;;19.30;48.80;;;;;;4308983;33;20148;-70
2022/04/16 08:04:24;;;;;;;3.97;2.58;;;19.30;48.60;;;;;;4311152;33;20134;-70
2022/04/16 08:06:53;;;;;;;5.25;2.70;;;19.30;48.40;;;;;;4298035;33;20076;-70
2022/04/16 08:09:19;;;;;;;5.32;2.65;;;19.30;48.30;;;;;;4308935;33;20101;-70
2022/04/16 08:11:48;;;;;;;3.90;2.85;;;19.30;48.10;;;;;;4309104;33;20138;-70
2022/04/16 08:14:14;;;;;;;4.05;2.70;;;19.30;48.00;;;;;;4313214;33;20069;-71
2022/04/16 08:16:40;;;;;;;6.82;2.78;;;19.40;47.90;;;;;;4323599;33;20088;-70
2022/04/16 08:19:06;;;;;;;4.38;2.40;;;19.40;47.80;;;;;;4323536;33;20483;-70
2022/04/16 08:21:34;;;;;;;3.83;2.42;;;19.40;47.60;;;;;;4324405;33;20408;-69
2022/04/16 08:24:13;;;;;;;3.38;2.00;;;19.40;47.40;;;;;;4323656;33;20181;-69
2022/04/16 08:26:40;;;;;;;2.95;2.20;;;19.40;47.20;;;;;;4324247;33;20139;-70
2022/04/16 08:29:07;;;;;;;3.33;2.20;;;19.40;47.20;;;;;;4310982;33;20129;-70
2022/04/16 08:31:33;;;;;;;4.82;2.40;;;19.40;47.20;;;;;;4324232;33;20103;-70
2022/04/16 08:34:00;;;;;;;4.10;2.50;;;19.40;47.20;;;;;;4324222;33;20096;-70
2022/04/16 08:36:26;;;;;;;6.15;2.45;;;19.40;47.00;;;;;;4324385;33;20125;-70
2022/04/16 08:38:52;;;;;;;4.10;2.15;;;19.40;46.70;;;;;;4325721;33;20112;-70
2022/04/16 08:41:18;;;;;;;3.85;2.30;;;19.40;46.50;;;;;;4326692;33;20499;-70
2022/04/16 08:43:45;;;;;;;3.10;2.05;;;19.40;46.30;;;;;;4326930;33;20214;-71
2022/04/16 08:46:11;;;;;;;4.47;2.03;;;19.40;46.30;;;;;;4326927;33;20096;-70
2022/04/16 08:48:37;;;;;;;5.35;2.00;;;19.50;46.10;;;;;;4326777;33;20124;-70
2022/04/16 08:51:03;;;;;;;3.88;1.60;;;19.40;45.90;;;;;;4326550;33;20515;-70
2022/04/16 08:53:29;;;;;;;4.43;1.73;;;19.40;45.70;;;;;;4326947;33;20057;-70
2022/04/16 08:55:55;;;;;;;6.53;2.33;;;19.40;45.60;;;;;;4326333;33;20242;-70
2022/04/16 08:58:21;;;;;;;3.03;1.55;;;19.50;45.60;;;;;;4326534;33;20080;-69
2022/04/16 09:00:48;;;;;;;4.70;1.92;;;19.50;45.50;;;;;;4313110;33;20266;-70
2022/04/16 09:03:14;;;;;;;4.80;2.15;;;19.50;46.40;;;;;;4326316;33;20100;-70
2022/04/16 09:05:39;;;;;;;3.15;1.92;;;19.50;45.30;;;;;;4300970;33;20065;-70
2022/04/16 09:08:05;;;;;;;3.83;1.88;;;19.50;45.20;;;;;;4326431;33;20418;-70
2022/04/16 09:10:33;;;;;;;3.35;2.08;;;19.50;45.00;;;;;;4326390;33;20250;-70
2022/04/16 09:13:01;;;;;;;3.00;1.38;;;19.50;44.80;;;;;;4326452;33;20565;-71
2022/04/16 09:15:28;;;;;;;2.70;1.45;;;19.50;44.60;;;;;;4312965;33;20093;-70
2022/04/16 09:18:05;;;;;;;2.03;1.42;;;19.50;44.50;;;;;;4326393;33;20553;-71
2022/04/16 09:20:39;;;;;;;3.65;1.73;;;19.50;44.20;;;;;;4326108;33;20127;-70
2022/04/16 09:23:19;;;;;;;3.20;1.75;;;19.50;44.20;;;;;;4326390;33;20411;-70
2022/04/16 09:25:46;;;;;;;2.83;1.73;;;19.50;44.10;;;;;;4326166;33;20157;-70
2022/04/16 09:28:15;;;;;;;4.22;1.80;;;19.50;44.30;;;;;;4326228;33;20107;-70
2022/04/16 09:30:55;;;;;;;2.95;1.60;;;19.50;44.00;;;;;;4326401;33;20138;-70
2022/04/16 09:33:21;;;;;;;3.15;1.63;;;19.50;43.70;;;;;;4326382;33;20415;-70
2022/04/16 09:35:54;;;;;;;2.67;1.73;;;19.50;43.70;;;;;;4326384;33;20103;-70
2022/04/16 09:38:20;;;;;;;2.88;1.60;;;19.60;43.70;;;;;;4326043;33;20091;-70
2022/04/16 09:40:47;;;;;;;2.25;1.50;;;19.60;43.60;;;;;;4326069;33;20120;-70
2022/04/16 09:43:12;;;;;;;3.78;1.40;;;19.50;43.60;;;;;;4325973;33;20073;-70
2022/04/16 09:45:40;;;;;;;2.72;1.30;;;19.50;43.40;;;;;;4326012;33;20077;-70
2022/04/16 09:48:10;;;;;;;1.77;1.40;;;19.50;43.50;;;;;;4325903;33;20116;-71
2022/04/16 09:50:38;;;;;;;2.38;1.42;;;19.50;43.30;;;;;;4325812;33;20116;-70
2022/04/16 09:53:06;;;;;;;2.47;1.40;;;19.50;43.40;;;;;;4326100;33;20077;-70
2022/04/16 09:55:32;;;;;;;2.47;1.48;;;19.50;43.10;;;;;;4312280;33;20073;-70
2022/04/16 09:58:02;;;;;;;3.00;1.30;;;19.50;43.20;;;;;;4325863;33;20087;-70
2022/04/16 10:00:29;;;;;;;2.78;1.40;;;19.50;43.00;;;;;;4325580;33;20123;-70
2022/04/16 10:02:55;;;;;;;2.17;1.33;;;19.50;42.90;;;;;;4326015;33;20529;-70
2022/04/16 10:05:22;;;;;;;3.65;1.45;;;19.50;43.00;;;;;;4325754;33;20068;-70
2022/04/16 10:07:48;;;;;;;3.35;1.50;;;19.50;43.00;;;;;;4325452;33;20210;-70
2022/04/16 10:10:31;;;;;;;3.17;1.60;;;19.50;43.00;;;;;;4325956;33;20081;-69
2022/04/16 10:13:07;;;;;;;3.15;1.40;;;19.50;42.80;;;;;;4325887;33;20194;-70
2022/04/16 10:15:54;;;;;;;5.25;1.50;;;19.50;42.50;;;;;;4325653;33;20592;-69
2022/04/16 10:18:21;;;;;;;1.73;1.30;;;19.50;42.50;;;;;;4325735;33;20080;-70
2022/04/16 10:20:51;;;;;;;2.42;1.17;;;19.50;42.50;;;;;;4325674;33;20109;-70
2022/04/16 10:23:31;;;;;;;3.25;1.38;;;19.50;42.30;;;;;;4325748;33;20069;-70
2022/04/16 10:26:16;;;;;;;2.83;1.13;;;19.50;42.20;;;;;;4312099;33;20091;-70
2022/04/16 10:28:58;;;;;;;3.40;1.20;;;19.50;41.70;;;;;;4325506;33;20084;-70
2022/04/16 10:31:33;;;;;;;4.32;1.52;;;19.50;41.90;;;;;;4325415;33;20084;-70
2022/04/16 10:34:05;;;;;;;2.95;1.52;;;19.50;42.00;;;;;;4326094;33;20588;-71
2022/04/16 10:36:39;;;;;;;3.08;1.42;;;19.50;41.60;;;;;;4326137;33;20092;-71
2022/04/16 10:39:25;;;;;;;2.72;1.23;;;19.50;41.40;;;;;;4325666;33;20395;-70
2022/04/16 10:41:56;;;;;;;3.60;1.20;;;19.40;41.00;;;;;;4325442;33;20081;-70
2022/04/16 10:44:22;;;;;;;3.55;1.48;;;19.40;40.60;;;;;;4325218;33;20094;-70
2022/04/16 10:46:53;;;;;;;3.35;1.92;;;19.40;40.20;;;;;;4324871;33;20076;-69
2022/04/16 10:49:21;;;;;;;2.47;1.73;;;19.40;39.40;;;;;;4325154;33;20404;-70
2022/04/16 10:51:47;;;;;;;4.57;1.85;;;19.40;39.40;;;;;;4312048;33;20160;-70
2022/04/16 10:54:14;;;;;;;3.85;2.00;;;19.40;39.30;;;;;;4324469;33;20143;-69
2022/04/16 10:56:51;;;;;;;2.55;1.90;;;19.40;40.40;;;;;;4324712;33;20234;-70
2022/04/16 10:59:17;;;;;;;3.38;1.88;;;19.40;39.20;;;;;;4311544;33;20096;-69
2022/04/16 11:01:55;;;;;;;4.60;2.00;;;19.30;39.20;;;;;;4324742;33;20132;-70
2022/04/16 11:04:20;;;;;;;3.30;1.95;;;19.30;39.10;;;;;;4311686;33;20081;-69
2022/04/16 11:06:51;;;;;;;2.92;1.77;;;19.40;39.40;;;;;;4324835;33;20250;-70
2022/04/16 11:09:18;;;;;;;2.90;1.70;;;19.30;39.50;;;;;;4325100;33;20136;-70
2022/04/16 11:11:50;;;;;;;3.33;1.67;;;19.30;39.50;;;;;;4311311;33;20210;-69
2022/04/16 11:14:16;;;;;;;3.45;1.80;;;19.30;39.40;;;;;;4308986;33;20480;-69
2022/04/16 11:16:44;;;;;;;4.25;1.95;;;19.30;39.60;;;;;;4323971;33;20080;-70
2022/04/16 11:19:17;;;;;;;2.88;1.80;;;19.30;39.50;;;;;;4324208;33;20132;-69
2022/04/16 11:21:43;;;;;;;4.13;1.70;;;19.30;39.60;;;;;;4324970;33;20095;-70
2022/04/16 11:24:10;;;;;;;3.35;1.80;;;19.30;39.70;;;;;;4324970;33;20077;-71
2022/04/16 11:34:57;;;;;;;4.40;1.88;;;19.30;39.40;;;;;;4312343;33;20608;-69
2022/04/16 11:37:25;;;;;;;3.95;1.80;;;19.30;38.50;;;;;;4320659;33;20521;-70
2022/04/16 11:40:03;;;;;;;4.63;1.90;;;19.30;38.20;;;;;;4307667;33;20140;-70
2022/04/16 11:42:29;;;;;;;2.78;1.65;;;19.30;38.00;;;;;;4321043;33;20207;-69
2022/04/16 11:44:56;;;;;;;3.13;1.95;;;19.30;38.20;;;;;;4323195;33;20431;-70
2022/04/16 11:47:30;;;;;;;3.53;1.77;;;19.30;38.40;;;;;;4323144;33;20448;-70
2022/04/16 11:50:00;;;;;;;3.60;1.88;;;19.30;38.30;;;;;;4304818;33;20099;-71
2022/04/16 11:52:32;;;;;;;3.28;1.85;;;19.30;38.50;;;;;;4309848;33;20097;-70
2022/04/16 11:55:08;;;;;;;3.33;1.80;;;19.30;38.40;;;;;;4321811;33;20153;-70
2022/04/16 11:57:34;;;;;;;2.47;1.67;;;19.30;38.40;;;;;;4323001;33;20152;-71
2022/04/16 12:00:04;;;;;;;2.47;1.67;;;19.30;38.30;;;;;;4319991;33;20084;-69
2022/04/16 12:02:32;;;;;;;3.38;1.70;;;19.30;38.20;;;;;;4321643;33;20076;-70
2022/04/16 12:05:07;;;;;;;3.53;1.50;;;19.30;37.70;;;;;;4323299;33;20230;-69
2022/04/16 12:07:33;;;;;;;4.53;1.50;;;19.30;37.70;;;;;;4323740;33;20457;-69
2022/04/16 12:10:02;;;;;;;1.98;1.40;;;19.30;38.10;;;;;;4324376;33;20087;-69
2022/04/16 12:12:28;;;;;;;3.10;1.30;;;19.30;38.00;;;;;;4324331;33;20180;-69
2022/04/16 12:14:55;;;;;;;3.58;1.27;;;19.30;37.60;;;;;;4326935;33;20100;-69
2022/04/16 12:17:26;;;;;;;2.42;1.15;;;19.30;37.60;;;;;;4326971;33;20100;-69
2022/04/16 12:20:12;;;;;;;2.45;1.27;;;19.30;37.60;;;;;;4327423;33;20243;-69
2022/04/16 12:22:52;;;;;;;4.78;1.27;;;19.30;37.60;;;;;;4327266;33;20128;-69
2022/04/16 12:25:23;;;;;;;1.55;1.05;;;19.30;37.90;;;;;;4327160;33;20089;-69
2022/04/16 12:27:52;;;;;;;2.67;1.25;;;19.30;38.20;;;;;;4327290;33;20073;-69
2022/04/16 12:30:25;;;;;;;4.43;1.20;;;19.30;38.50;;;;;;4326975;33;20478;-69
2022/04/16 12:33:06;;;;;;;1.60;1.10;;;19.30;39.80;;;;;;4327311;33;20077;-69
2022/04/16 12:35:34;;;;;;;4.30;1.35;;;19.30;39.20;;;;;;4327038;33;20518;-69
2022/04/16 12:38:01;;;;;;;2.60;1.00;;;19.30;39.50;;;;;;4326859;33;20103;-69
2022/04/16 12:40:29;;;;;;;2.22;1.10;;;19.30;39.70;;;;;;4326501;33;20124;-69
2022/04/16 12:42:56;;;;;;;2.75;1.20;;;19.30;39.80;;;;;;4326899;33;20096;-70
2022/04/16 12:45:23;;;;;;;1.80;1.15;;;19.30;40.00;;;;;;4326795;33;20084;-69
2022/04/16 12:47:49;;;;;;;3.22;1.30;;;19.30;39.40;;;;;;4326720;33;20419;-69
2022/04/16 12:50:15;;;;;;;3.00;1.40;;;19.30;38.40;;;;;;4326762;33;20145;-69
2022/04/16 12:52:42;;;;;;;3.13;1.30;;;19.40;37.90;;;;;;4326729;33;20170;-69
2022/04/16 12:55:09;;;;;;;3.03;1.30;;;19.40;37.70;;;;;;4326406;33;20100;-69
2022/04/16 12:57:35;;;;;;;3.40;1.42;;;19.40;37.40;;;;;;4313247;33;20080;-70
2022/04/16 13:00:02;;;;;;;2.30;1.13;;;19.50;37.60;;;;;;4326350;33;20077;-69
2022/04/16 13:02:29;;;;;;;1.98;1.02;;;19.50;37.30;;;;;;4326487;33;20148;-69
2022/04/16 13:04:55;;;;;;;3.90;1.45;;;19.50;37.30;;;;;;4326378;33;20088;-69
2022/04/16 13:07:22;;;;;;;2.13;1.40;;;19.60;37.40;;;;;;4326327;33;20131;-70
2022/04/16 13:09:48;;;;;;;5.40;1.00;;;19.60;37.20;;;;;;4326459;33;20077;-69
2022/04/16 13:12:15;;;;;;;2.45;1.27;;;19.60;37.00;;;;;;4326705;33;20101;-70